Ontario, New York
Current Conditions -  °F | °C
As of 8:54 AM on Thursday 29 Jan 2015 (Local Time) from KROC Reporting Station
Overcast Overcast  
Wind Chill: 15°   Ceiling: 7500
Heat Index: 15°   Visibility: 10mi
Dew Point:   Wind: 0mph
Humidity: 64%   Direction: NA
Pressure: 30.08"   Gusts: NA
Location:  43.22°N, 77.28°W
Report Text: KROC 291354Z 00000KT 10SM OVC075 M09/M15 A3008 RMK AO2 SLP199 T10941150
Loading
Personal Weather Stations






























Interactive Weather Map New forecast layout! Learn more

10-Day Weather Forecast

Advertisements
Track Severe Weather on mobile